createdAt,value
2018-09-18T00:01:27.908Z,11.40
2018-09-18T00:03:56.351Z,11.40
2018-09-18T00:06:24.806Z,11.40
2018-09-18T00:08:53.220Z,11.30
2018-09-18T00:11:21.672Z,11.30
2018-09-18T00:13:50.104Z,11.30
2018-09-18T00:16:18.604Z,11.30
2018-09-18T00:18:47.033Z,11.20
2018-09-18T00:21:16.296Z,11.10
2018-09-18T00:23:44.781Z,11.10
2018-09-18T00:26:13.216Z,11.10
2018-09-18T00:28:41.709Z,11.20
2018-09-18T00:31:10.865Z,11.10
2018-09-18T00:33:39.340Z,11.00
2018-09-18T00:36:07.805Z,10.80
2018-09-18T00:38:37.849Z,10.60
2018-09-18T00:41:06.320Z,10.60
2018-09-18T00:43:34.811Z,10.70
2018-09-18T00:46:03.287Z,10.70
2018-09-18T00:48:31.767Z,10.60
2018-09-18T00:51:00.252Z,10.40
2018-09-18T00:53:28.767Z,10.30
2018-09-18T00:55:57.230Z,10.30
2018-09-18T00:58:25.695Z,10.20
2018-09-18T01:00:54.144Z,10.30
2018-09-18T01:03:22.571Z,10.20
2018-09-18T01:05:50.992Z,10.20
2018-09-18T01:08:19.447Z,10.00
2018-09-18T01:10:47.883Z,9.90
2018-09-18T01:13:16.307Z,10.00
2018-09-18T01:15:44.711Z,9.90
2018-09-18T01:18:13.147Z,10.00
2018-09-18T01:20:41.576Z,10.00
2018-09-18T01:23:10.199Z,9.90
2018-09-18T01:25:38.590Z,9.90
2018-09-18T01:28:06.986Z,9.90
2018-09-18T01:30:35.425Z,9.80
2018-09-18T01:33:03.823Z,9.70
2018-09-18T01:35:32.240Z,9.70
2018-09-18T01:38:00.632Z,9.70
2018-09-18T01:40:29.073Z,9.80
2018-09-18T01:42:57.477Z,9.90
2018-09-18T01:45:25.887Z,9.90
2018-09-18T01:47:54.292Z,10.00
2018-09-18T01:50:22.711Z,10.10
2018-09-18T01:52:51.111Z,10.10
2018-09-18T01:55:19.534Z,10.10
2018-09-18T01:57:47.944Z,10.10
2018-09-18T02:00:16.419Z,10.20
2018-09-18T02:02:44.815Z,10.20
2018-09-18T02:05:13.251Z,10.30
2018-09-18T02:07:41.660Z,10.10
2018-09-18T02:10:10.087Z,9.80
2018-09-18T02:12:38.499Z,9.60
2018-09-18T02:15:09.073Z,9.60
2018-09-18T02:17:37.504Z,9.70
2018-09-18T02:20:06.428Z,9.70
2018-09-18T02:22:34.882Z,9.70
2018-09-18T02:25:03.384Z,9.70
2018-09-18T02:27:31.836Z,9.70
2018-09-18T02:30:00.263Z,9.50
2018-09-18T02:32:28.655Z,9.50
2018-09-18T02:34:57.089Z,9.50
2018-09-18T02:37:25.546Z,9.50
2018-09-18T02:39:53.976Z,9.50
2018-09-18T02:42:22.517Z,9.40
2018-09-18T02:44:51.356Z,9.30
2018-09-18T02:47:19.778Z,9.40
2018-09-18T02:49:48.723Z,9.50
2018-09-18T02:52:17.645Z,9.60
2018-09-18T02:54:46.041Z,9.70
2018-09-18T02:57:14.481Z,9.60
2018-09-18T02:59:42.927Z,9.50
2018-09-18T03:02:12.448Z,9.40
2018-09-18T03:04:40.875Z,9.30
2018-09-18T03:07:09.740Z,9.20
2018-09-18T03:09:38.166Z,9.20
2018-09-18T03:12:06.606Z,9.20
2018-09-18T03:14:35.042Z,9.20
2018-09-18T03:17:03.496Z,9.20
2018-09-18T03:19:31.920Z,9.10
2018-09-18T03:22:00.820Z,9.20
2018-09-18T03:24:29.245Z,9.20
2018-09-18T03:26:57.688Z,9.30
2018-09-18T03:29:26.103Z,9.40
2018-09-18T03:31:54.528Z,9.40
2018-09-18T03:34:22.952Z,9.50
2018-09-18T03:36:51.476Z,9.50
2018-09-18T03:39:20.157Z,9.50
2018-09-18T03:41:48.572Z,9.40
2018-09-18T03:44:16.970Z,9.20
2018-09-18T03:46:45.468Z,9.00
2018-09-18T03:49:13.863Z,8.90
2018-09-18T03:51:42.276Z,8.90
2018-09-18T03:54:10.684Z,9.00
2018-09-18T03:56:39.118Z,9.00
2018-09-18T03:59:07.540Z,9.10
2018-09-18T04:01:35.961Z,9.10
2018-09-18T04:04:04.421Z,8.90
2018-09-18T04:06:32.828Z,8.80
2018-09-18T04:09:01.250Z,8.70
2018-09-18T04:11:29.645Z,8.70
2018-09-18T04:13:58.059Z,8.80
2018-09-18T04:16:26.480Z,8.90
2018-09-18T04:18:54.905Z,8.90
2018-09-18T04:21:27.519Z,9.00
2018-09-18T04:23:55.941Z,9.00
2018-09-18T04:26:24.354Z,9.00
2018-09-18T04:28:52.788Z,9.00
2018-09-18T04:31:21.184Z,9.10
2018-09-18T04:33:52.637Z,9.10
2018-09-18T04:36:21.072Z,9.10
2018-09-18T04:38:49.592Z,9.00
2018-09-18T04:41:17.984Z,9.00
2018-09-18T04:43:46.387Z,8.80
2018-09-18T04:46:14.803Z,8.70
2018-09-18T04:48:43.226Z,8.50
2018-09-18T04:51:11.624Z,8.50
2018-09-18T04:53:40.068Z,8.50
2018-09-18T04:56:08.462Z,8.50
2018-09-18T04:58:36.865Z,8.60
2018-09-18T05:01:05.456Z,8.80
2018-09-18T05:03:34.901Z,8.90
2018-09-18T05:06:03.357Z,9.00
2018-09-18T05:08:31.827Z,9.10
2018-09-18T05:11:00.272Z,9.20
2018-09-18T05:13:28.669Z,9.20
2018-09-18T05:15:57.088Z,9.30
2018-09-18T05:18:25.489Z,9.40
2018-09-18T05:20:53.895Z,9.40
2018-09-18T05:23:22.344Z,9.30
2018-09-18T05:25:50.976Z,9.30
2018-09-18T05:28:19.383Z,9.30
2018-09-18T05:30:47.860Z,9.30
2018-09-18T05:33:16.252Z,9.70
2018-09-18T05:35:44.673Z,11.20
2018-09-18T05:38:13.068Z,12.90
2018-09-18T05:40:41.511Z,14.30
2018-09-18T05:43:09.921Z,15.50
2018-09-18T05:45:38.341Z,16.70
2018-09-18T05:48:06.839Z,17.70
2018-09-18T05:50:35.267Z,18.50
2018-09-18T05:53:03.673Z,19.20
2018-09-18T05:55:32.099Z,20.00
2018-09-18T05:58:00.505Z,20.60
2018-09-18T06:00:29.000Z,21.20
2018-09-18T06:02:57.428Z,21.70
2018-09-18T06:05:25.851Z,22.20
2018-09-18T06:07:55.747Z,22.70
2018-09-18T06:10:24.249Z,23.10
2018-09-18T06:12:52.667Z,23.40
2018-09-18T06:15:21.216Z,23.60
2018-09-18T06:17:49.615Z,23.90
2018-09-18T06:20:18.576Z,24.20
2018-09-18T06:22:47.053Z,24.50
2018-09-18T06:25:15.471Z,24.80
2018-09-18T06:27:44.111Z,25.20
2018-09-18T06:30:12.568Z,25.70
2018-09-18T06:32:41.003Z,26.00
2018-09-18T06:35:09.492Z,26.40
2018-09-18T06:37:37.908Z,26.70
2018-09-18T06:40:06.387Z,26.90
2018-09-18T06:42:34.964Z,27.30
2018-09-18T06:45:03.404Z,27.60
2018-09-18T06:47:31.851Z,27.80
2018-09-18T06:50:00.263Z,28.00
2018-09-18T06:52:28.684Z,28.10
2018-09-18T06:54:57.125Z,28.20
2018-09-18T06:57:28.721Z,28.20
2018-09-18T06:59:57.207Z,28.20
2018-09-18T07:02:25.680Z,28.40
2018-09-18T07:04:54.104Z,28.70
2018-09-18T07:07:22.550Z,28.80
2018-09-18T07:09:50.968Z,28.70
2018-09-18T07:12:19.432Z,28.70
2018-09-18T07:14:47.884Z,28.70
2018-09-18T07:17:16.305Z,28.80
2018-09-18T07:19:44.792Z,29.10
2018-09-18T07:22:13.228Z,29.30
2018-09-18T07:24:41.678Z,29.00
2018-09-18T07:27:10.098Z,28.80
2018-09-18T07:29:38.741Z,28.40
2018-09-18T07:32:07.180Z,28.00
2018-09-18T07:34:35.657Z,27.80
2018-09-18T07:37:04.156Z,27.90
2018-09-18T07:39:32.597Z,28.10
2018-09-18T07:42:01.069Z,28.20
2018-09-18T07:44:29.895Z,28.40
2018-09-18T07:46:58.389Z,28.60
2018-09-18T07:49:26.856Z,29.00
2018-09-18T07:51:55.262Z,29.20
2018-09-18T07:54:23.713Z,29.30
2018-09-18T07:56:52.180Z,29.60
2018-09-18T07:59:20.636Z,29.70
2018-09-18T08:01:49.039Z,29.70
2018-09-18T08:04:17.505Z,29.80
2018-09-18T08:06:46.014Z,29.80
2018-09-18T08:09:14.692Z,29.70
2018-09-18T08:11:43.984Z,30.00
2018-09-18T08:14:12.463Z,30.20
2018-09-18T08:16:40.872Z,30.30
2018-09-18T08:19:09.343Z,30.40
2018-09-18T08:21:37.749Z,30.60
2018-09-18T08:24:06.468Z,30.90
2018-09-18T08:26:34.905Z,31.00
2018-09-18T08:29:03.335Z,31.10
2018-09-18T08:31:31.798Z,31.60
2018-09-18T08:34:00.667Z,32.00
2018-09-18T08:36:29.177Z,32.20
2018-09-18T08:38:57.630Z,32.20
2018-09-18T08:41:26.086Z,32.20
2018-09-18T08:43:54.516Z,32.20
2018-09-18T08:46:22.931Z,32.30
2018-09-18T08:48:55.396Z,32.00
2018-09-18T08:51:23.859Z,31.90
2018-09-18T08:53:52.273Z,32.30
2018-09-18T08:56:20.711Z,32.40
2018-09-18T08:58:49.602Z,32.50
2018-09-18T09:01:19.137Z,32.50
2018-09-18T09:03:47.595Z,32.50
2018-09-18T09:06:16.075Z,32.40
2018-09-18T09:08:44.604Z,32.30
2018-09-18T09:11:13.014Z,32.40
2018-09-18T09:13:41.468Z,32.30
2018-09-18T09:16:09.940Z,32.30
2018-09-18T09:18:38.503Z,32.50
2018-09-18T09:21:06.981Z,32.40
2018-09-18T09:23:35.361Z,32.00
2018-09-18T09:26:03.841Z,31.50
2018-09-18T09:28:32.746Z,31.50
2018-09-18T09:31:01.321Z,31.60
2018-09-18T09:33:29.799Z,31.90
2018-09-18T09:35:58.360Z,32.20
2018-09-18T09:38:26.781Z,32.40
2018-09-18T09:40:55.204Z,32.50
2018-09-18T09:43:23.645Z,32.50
2018-09-18T09:45:52.225Z,32.20
2018-09-18T09:48:20.705Z,32.10
2018-09-18T09:50:51.602Z,32.10
2018-09-18T09:53:20.059Z,32.20
2018-09-18T09:55:49.365Z,32.40
2018-09-18T09:58:20.380Z,32.60
2018-09-18T10:00:54.958Z,33.10
2018-09-18T10:03:23.429Z,33.60
2018-09-18T10:05:51.839Z,34.30
2018-09-18T10:08:20.270Z,34.60
2018-09-18T10:10:48.861Z,34.50
2018-09-18T10:13:17.134Z,34.30
2018-09-18T10:15:45.630Z,34.40
2018-09-18T10:18:14.153Z,34.60
2018-09-18T10:20:42.522Z,34.70
2018-09-18T10:23:10.957Z,34.80
2018-09-18T10:25:39.377Z,34.40
2018-09-18T10:28:07.832Z,34.40
2018-09-18T10:30:36.275Z,34.70
2018-09-18T10:33:04.781Z,35.10
2018-09-18T10:35:33.212Z,35.30
2018-09-18T10:38:01.660Z,35.30
2018-09-18T10:40:30.113Z,35.50
2018-09-18T10:42:58.689Z,35.50
2018-09-18T10:45:27.086Z,35.70
2018-09-18T10:47:55.538Z,35.50
2018-09-18T10:50:23.992Z,35.20
2018-09-18T10:52:52.469Z,35.10
2018-09-18T10:55:20.947Z,35.10
2018-09-18T10:57:49.416Z,35.20
2018-09-18T11:00:17.885Z,35.10
2018-09-18T11:02:46.307Z,34.90
2018-09-18T11:05:14.737Z,34.70
2018-09-18T11:07:43.294Z,34.30
2018-09-18T11:10:11.992Z,34.30
2018-09-18T11:12:40.499Z,34.70
2018-09-18T11:15:08.973Z,34.90
2018-09-18T11:17:37.398Z,35.10
2018-09-18T11:20:06.054Z,35.10
2018-09-18T11:22:34.461Z,34.30
2018-09-18T11:25:02.883Z,33.60
2018-09-18T11:27:31.279Z,33.60
2018-09-18T11:29:59.722Z,34.00
2018-09-18T11:32:28.163Z,34.50
2018-09-18T11:34:56.641Z,34.90
2018-09-18T11:37:25.032Z,34.40
2018-09-18T11:39:53.453Z,34.30
2018-09-18T11:42:21.873Z,33.70
2018-09-18T11:44:50.288Z,33.60
2018-09-18T11:47:18.789Z,33.90
2018-09-18T11:49:47.197Z,34.20
2018-09-18T11:52:15.634Z,34.30
2018-09-18T11:54:44.076Z,34.40
2018-09-18T11:57:13.037Z,34.20
2018-09-18T11:59:41.478Z,33.70
2018-09-18T12:02:09.960Z,33.50
2018-09-18T12:04:38.400Z,33.20
2018-09-18T12:07:06.820Z,32.70
2018-09-18T12:09:35.232Z,32.50
2018-09-18T12:12:03.675Z,32.60
2018-09-18T12:14:32.139Z,32.90
2018-09-18T12:17:00.591Z,32.70
2018-09-18T12:19:29.014Z,32.60
2018-09-18T12:21:57.456Z,32.50
2018-09-18T12:24:27.219Z,32.30
2018-09-18T12:26:55.643Z,32.30
2018-09-18T12:29:24.457Z,32.40
2018-09-18T12:31:52.937Z,32.40
2018-09-18T12:34:21.548Z,32.40
2018-09-18T12:36:50.039Z,32.50
2018-09-18T12:39:18.423Z,32.40
2018-09-18T12:41:46.871Z,32.30
2018-09-18T12:44:15.318Z,32.30
2018-09-18T12:46:43.745Z,32.00
2018-09-18T12:49:12.217Z,31.90
2018-09-18T12:51:40.638Z,31.80
2018-09-18T12:54:09.138Z,31.60
2018-09-18T12:56:37.510Z,31.60
2018-09-18T12:59:06.351Z,31.60
2018-09-18T13:01:34.756Z,31.60
2018-09-18T13:04:04.516Z,31.80
2018-09-18T13:06:33.117Z,32.00
2018-09-18T13:09:01.376Z,32.10
2018-09-18T13:11:31.305Z,32.10
2018-09-18T13:13:59.856Z,31.80
2018-09-18T13:16:28.205Z,31.40
2018-09-18T13:18:56.655Z,31.30
2018-09-18T13:21:25.099Z,31.30
2018-09-18T13:23:53.532Z,31.30
2018-09-18T13:26:21.948Z,31.30
2018-09-18T13:28:50.342Z,31.50
2018-09-18T13:31:18.769Z,31.60
2018-09-18T13:33:47.540Z,31.30
2018-09-18T13:36:16.012Z,31.20
2018-09-18T13:38:44.440Z,31.10
2018-09-18T13:41:12.951Z,31.10
2018-09-18T13:43:41.312Z,31.20
2018-09-18T13:46:10.295Z,31.20
2018-09-18T13:48:38.709Z,31.30
2018-09-18T13:51:07.312Z,31.50
2018-09-18T13:53:35.744Z,31.70
2018-09-18T13:56:04.264Z,31.70
2018-09-18T13:58:32.647Z,31.60
2018-09-18T14:01:05.049Z,31.50
2018-09-18T14:03:33.522Z,31.60
2018-09-18T14:06:01.983Z,31.60
2018-09-18T14:08:30.417Z,31.60
2018-09-18T14:10:58.877Z,31.60
2018-09-18T14:13:27.438Z,31.60
2018-09-18T14:15:55.883Z,31.40
2018-09-18T14:18:24.307Z,31.30
2018-09-18T14:20:52.761Z,31.20
2018-09-18T14:23:21.180Z,31.20
2018-09-18T14:25:49.627Z,31.10
2018-09-18T14:28:18.061Z,31.10
2018-09-18T14:30:47.525Z,31.00
2018-09-18T14:33:16.932Z,30.90
2018-09-18T14:35:45.429Z,30.90
2018-09-18T14:38:13.910Z,30.80
2018-09-18T14:40:42.333Z,30.90
2018-09-18T14:43:10.776Z,30.90
2018-09-18T14:45:39.210Z,30.80
2018-09-18T14:48:07.659Z,30.60
2018-09-18T14:50:36.296Z,30.50
2018-09-18T14:53:05.104Z,30.60
2018-09-18T14:55:33.580Z,30.70
2018-09-18T14:58:02.471Z,30.90
2018-09-18T15:00:30.931Z,30.80
2018-09-18T15:02:59.387Z,30.80
2018-09-18T15:05:27.816Z,30.90
2018-09-18T15:07:56.307Z,30.80
2018-09-18T15:10:24.736Z,30.60
2018-09-18T15:12:53.291Z,30.40
2018-09-18T15:15:21.735Z,30.20
2018-09-18T15:17:50.191Z,30.10
2018-09-18T15:20:18.633Z,30.10
2018-09-18T15:22:47.096Z,30.30
2018-09-18T15:25:15.532Z,30.30
2018-09-18T15:27:43.987Z,30.30
2018-09-18T15:30:12.441Z,30.30
2018-09-18T15:32:40.883Z,30.20
2018-09-18T15:35:09.369Z,30.00
2018-09-18T15:37:37.798Z,29.90
2018-09-18T15:40:06.327Z,29.70
2018-09-18T15:42:34.697Z,29.70
2018-09-18T15:45:03.181Z,29.70
2018-09-18T15:47:31.595Z,29.70
2018-09-18T15:50:00.064Z,29.70
2018-09-18T15:52:28.496Z,29.70
2018-09-18T15:54:56.939Z,29.60
2018-09-18T15:57:25.348Z,29.60
2018-09-18T15:59:53.819Z,29.60
2018-09-18T16:02:22.238Z,29.50
2018-09-18T16:04:50.678Z,29.40
2018-09-18T16:07:19.115Z,29.30
2018-09-18T16:09:47.611Z,29.10
2018-09-18T16:12:16.000Z,29.00
2018-09-18T16:14:44.523Z,28.80
2018-09-18T16:17:12.888Z,28.70
2018-09-18T16:19:41.340Z,28.70
2018-09-18T16:22:09.761Z,28.70
2018-09-18T16:24:38.215Z,28.60
2018-09-18T16:27:06.672Z,28.50
2018-09-18T16:29:35.156Z,28.40
2018-09-18T16:32:03.634Z,28.20
2018-09-18T16:34:32.061Z,28.10
2018-09-18T16:37:00.531Z,27.90
2018-09-18T16:39:28.951Z,27.80
2018-09-18T16:41:57.396Z,27.70
2018-09-18T16:44:25.827Z,27.50
2018-09-18T16:46:54.599Z,27.40
2018-09-18T16:49:23.041Z,27.20
2018-09-18T16:51:51.512Z,27.00
2018-09-18T16:54:20.002Z,26.90
2018-09-18T16:56:48.404Z,26.80
2018-09-18T16:59:16.835Z,26.60
2018-09-18T17:01:45.293Z,26.40
2018-09-18T17:04:13.728Z,26.30
2018-09-18T17:06:42.293Z,26.10
2018-09-18T17:09:10.625Z,26.00
2018-09-18T17:11:39.082Z,25.80
2018-09-18T17:14:07.517Z,25.60
2018-09-18T17:16:36.050Z,25.40
2018-09-18T17:19:04.442Z,25.20
2018-09-18T17:21:32.888Z,25.10
2018-09-18T17:24:01.371Z,24.90
2018-09-18T17:26:29.844Z,24.60
2018-09-18T17:28:58.366Z,24.30
2018-09-18T17:31:26.729Z,24.10
2018-09-18T17:33:55.154Z,23.90
2018-09-18T17:36:23.608Z,23.70
2018-09-18T17:38:52.027Z,23.50
2018-09-18T17:41:20.475Z,23.30
2018-09-18T17:43:48.912Z,23.20
2018-09-18T17:46:17.341Z,23.10
2018-09-18T17:48:45.777Z,23.00
2018-09-18T17:51:14.215Z,22.80
2018-09-18T17:53:42.718Z,22.60
2018-09-18T17:56:11.359Z,22.40
2018-09-18T17:58:39.801Z,22.30
2018-09-18T18:01:08.246Z,22.20
2018-09-18T18:03:37.736Z,22.10
2018-09-18T18:06:06.162Z,22.00
2018-09-18T18:08:34.645Z,21.90
2018-09-18T18:11:03.080Z,21.80
2018-09-18T18:13:31.520Z,21.70
2018-09-18T18:15:59.944Z,21.60
2018-09-18T18:18:28.397Z,21.40
2018-09-18T18:20:56.859Z,21.30
2018-09-18T18:23:25.390Z,21.20
2018-09-18T18:25:53.773Z,21.10
2018-09-18T18:28:22.219Z,21.00
2018-09-18T18:30:50.639Z,20.80
2018-09-18T18:33:19.135Z,20.60
2018-09-18T18:35:47.542Z,20.40
2018-09-18T18:38:16.006Z,20.30
2018-09-18T18:40:44.485Z,20.40
2018-09-18T18:43:12.889Z,20.30
2018-09-18T18:45:41.335Z,20.30
2018-09-18T18:48:09.937Z,20.30
2018-09-18T18:50:38.235Z,20.30
2018-09-18T18:53:06.665Z,20.10
2018-09-18T18:55:35.117Z,20.00
2018-09-18T18:58:03.534Z,19.80
2018-09-18T19:00:32.047Z,19.70
2018-09-18T19:03:00.414Z,19.70
2018-09-18T19:05:28.832Z,19.70
2018-09-18T19:07:57.239Z,19.60
2018-09-18T19:10:25.679Z,19.50
2018-09-18T19:12:54.087Z,19.30
2018-09-18T19:15:22.510Z,19.30
2018-09-18T19:17:50.914Z,19.20
2018-09-18T19:20:19.333Z,19.20
2018-09-18T19:22:47.749Z,19.20
2018-09-18T19:25:16.193Z,19.20
2018-09-18T19:27:44.655Z,19.20
2018-09-18T19:30:13.123Z,19.20
2018-09-18T19:32:41.563Z,19.30
2018-09-18T19:35:09.996Z,19.30
2018-09-18T19:37:38.488Z,19.30
2018-09-18T19:40:06.954Z,19.20
2018-09-18T19:42:35.381Z,19.10
2018-09-18T19:45:03.827Z,19.00
2018-09-18T19:47:32.271Z,18.80
2018-09-18T19:50:00.684Z,18.60
2018-09-18T19:52:29.991Z,18.40
2018-09-18T19:54:58.444Z,18.30
2018-09-18T19:57:27.432Z,18.20
2018-09-18T19:59:56.697Z,18.10
2018-09-18T20:02:26.678Z,18.10
2018-09-18T20:04:56.456Z,18.10
2018-09-18T20:07:24.880Z,18.20
2018-09-18T20:09:53.293Z,18.20
2018-09-18T20:12:21.734Z,18.30
2018-09-18T20:14:50.172Z,18.40
2018-09-18T20:17:18.572Z,18.30
2018-09-18T20:19:47.032Z,18.10
2018-09-18T20:22:15.437Z,17.90
2018-09-18T20:24:43.908Z,17.90
2018-09-18T20:27:12.314Z,17.90
2018-09-18T20:29:40.864Z,17.90
2018-09-18T20:32:09.232Z,17.80
2018-09-18T20:34:37.677Z,17.60
2018-09-18T20:37:06.162Z,17.50
2018-09-18T20:39:34.601Z,17.60
2018-09-18T20:42:03.057Z,17.60
2018-09-18T20:44:32.432Z,17.60
2018-09-18T20:47:00.917Z,17.70
2018-09-18T20:49:29.463Z,17.70
2018-09-18T20:51:57.892Z,17.80
2018-09-18T20:54:26.518Z,17.80
2018-09-18T20:56:54.963Z,17.80
2018-09-18T20:59:23.419Z,17.90
2018-09-18T21:01:51.895Z,17.90
2018-09-18T21:04:20.332Z,17.80
2018-09-18T21:06:48.753Z,17.60
2018-09-18T21:09:17.227Z,17.50
2018-09-18T21:11:45.693Z,17.40
2018-09-18T21:14:14.132Z,17.30
2018-09-18T21:16:42.559Z,17.10
2018-09-18T21:19:11.027Z,16.90
2018-09-18T21:21:39.443Z,16.80
2018-09-18T21:24:07.905Z,16.70
2018-09-18T21:26:36.345Z,16.70
2018-09-18T21:29:04.787Z,16.60
2018-09-18T21:31:33.215Z,16.60
2018-09-18T21:34:01.674Z,16.70
2018-09-18T21:36:30.131Z,16.80
2018-09-18T21:38:58.566Z,16.90
2018-09-18T21:41:26.977Z,17.10
2018-09-18T21:43:55.420Z,17.10
2018-09-18T21:46:23.853Z,17.10
2018-09-18T21:48:52.263Z,17.00
2018-09-18T21:51:20.712Z,16.80
2018-09-18T21:53:49.136Z,16.60
2018-09-18T21:56:17.594Z,16.40
2018-09-18T21:58:46.069Z,16.20
2018-09-18T22:01:14.844Z,16.20
2018-09-18T22:03:43.281Z,16.20
2018-09-18T22:06:11.732Z,16.20
2018-09-18T22:08:40.167Z,16.30
2018-09-18T22:11:08.616Z,16.30
2018-09-18T22:13:37.033Z,16.40
2018-09-18T22:16:05.512Z,16.40
2018-09-18T22:18:33.980Z,16.50
2018-09-18T22:21:02.426Z,16.50
2018-09-18T22:23:30.853Z,16.30
2018-09-18T22:25:59.294Z,16.10
2018-09-18T22:28:27.725Z,16.00
2018-09-18T22:30:56.167Z,16.00
2018-09-18T22:33:24.592Z,16.00
2018-09-18T22:35:53.041Z,16.20
2018-09-18T22:38:21.447Z,16.20
2018-09-18T22:40:49.970Z,16.30
2018-09-18T22:43:18.425Z,16.30
2018-09-18T22:45:46.901Z,16.10
2018-09-18T22:48:15.361Z,16.00
2018-09-18T22:50:43.775Z,16.00
2018-09-18T22:53:12.217Z,15.80
2018-09-18T22:55:41.561Z,15.70
2018-09-18T22:58:10.036Z,15.60
2018-09-18T23:00:38.512Z,15.60
2018-09-18T23:03:06.928Z,15.50
2018-09-18T23:05:41.065Z,15.50
2018-09-18T23:08:09.480Z,15.50
2018-09-18T23:10:37.890Z,15.50
2018-09-18T23:13:06.324Z,15.70
2018-09-18T23:15:34.743Z,15.80
2018-09-18T23:18:04.156Z,15.90
2018-09-18T23:20:32.607Z,15.80
2018-09-18T23:23:01.041Z,15.70
2018-09-18T23:25:31.165Z,15.60
2018-09-18T23:27:59.640Z,15.70
2018-09-18T23:30:28.148Z,15.70
2018-09-18T23:32:56.605Z,15.80
2018-09-18T23:35:25.021Z,15.80
2018-09-18T23:37:53.438Z,15.70
2018-09-18T23:40:21.834Z,15.70
2018-09-18T23:42:50.255Z,15.80
2018-09-18T23:45:18.704Z,15.90
2018-09-18T23:47:47.117Z,15.90
2018-09-18T23:50:15.643Z,16.10
2018-09-18T23:52:44.112Z,16.10
2018-09-18T23:55:12.580Z,16.20
2018-09-18T23:57:40.978Z,16.10
